Kure, Japan
Current Conditions -  °F | °C
As of 10:55 PM on Monday 24 Nov 2014 (Local Time) from RJOI Reporting Station
Overcast Overcast  
Wind Chill: 60°   Ceiling: 4000
Heat Index: 60°   Visibility: 6mi
Dew Point: 52°   Wind: 3mph
Humidity: 75%   Direction: 290°WNW
Pressure: 29.99"   Gusts: NA
Location:  34.25°N, 132.56°E
Report Text: RJOI 241355Z 29003KT 9999 FEW025 BKN040 OVC100 16/11 A2999 RMK SLP154 T01560111
Loading
Personal Weather Stations






























Interactive Weather Map New forecast layout! Learn more

10-Day Weather Forecast

Advertisements
Track Severe Weather on mobile